Weather History for Appleton, MN

Change the Weather History Date:

Wednesday, April 3, 2013

  Actual Average Record
Temperature  
Mean Temperature 39 °F -  
Max Temperature 57 °F 45 °F 64 °F (2005)
Min Temperature 21 °F 26 °F 10 °F (2002)
Degree Days  
Heating Degree Days 26    
Moisture  
Dew Point 28 °F    
Average Humidity 68    
Maximum Humidity 93    
Minimum Humidity 48    
Precipitation  
Precipitation 0.00 in - - ()
Sea Level Pressure  
Sea Level Pressure 30.15 in    
Wind  
Wind Speed 9 mph (SSE)    
Max Wind Speed 20 mph    
Max Gust Speed 25 mph    
Visibility 10 miles    
Events      
Averages and records for this station are not official NWS values.
T = Trace of Precipitation, MM = Missing Value Source: NWS Daily Summary

Daily Weather History Graph

Daily Weather History Graph

Search for Another Location

Airport:

Trip Planner

Search our weather history database for the weather conditions in past years. The results will help you decide how hot, cold, wet, or windy it might be!

Date:

Astronomy

Apr. 03, 2013 Rise Set
Actual Time 7:00 AM CDT 7:54 PM CDT
Civil Twilight 6:30 AM CDT 8:24 PM CDT
Nautical Twilight 5:54 AM CDT 9:00 PM CDT
Astronomical Twilight 5:17 AM CDT 9:38 PM CDT
Moon 2:59 AM CDT (4/3) 12:51 PM CDT (4/3)
Length of Visible Light 13h 54m
Length of Day
12h 54m
Last Quarter, 44% of the Moon is Illuminated
Apr 3
Last Quarter
Apr 10
New
Apr 18
First Quarter
Apr 25
Full
May 2
Last Quarter

Hourly Weather History & Observations

Time (CDT) Temp. Windchill Dew Point Humidity Pressure Visibility Wind Dir Wind Speed Gust Speed Precip Events Conditions
12:13 AM 23.0 °F 17.0 °F 21.2 °F 93% 30.34 in 10.0 mi ENE 4.6 mph - N/A   Clear
12:33 AM 24.8 °F 20.5 °F 21.2 °F 86% 30.34 in 10.0 mi ENE 3.5 mph - N/A   Clear
12:53 AM 21.2 °F 13.6 °F 19.4 °F 93% 30.34 in 10.0 mi ENE 5.8 mph - N/A   Clear
1:13 AM 21.2 °F 14.9 °F 19.4 °F 93% 30.34 in 10.0 mi East 4.6 mph - N/A   Clear
1:34 AM 23.0 °F 17.0 °F 19.4 °F 86% 30.34 in 10.0 mi East 4.6 mph - N/A   Clear
1:53 AM 23.0 °F 15.8 °F 19.4 °F 86% 30.34 in 10.0 mi East 5.8 mph - N/A   Clear
2:13 AM 21.2 °F - 19.4 °F 93% 30.34 in 10.0 mi Calm Calm - N/A   Clear
2:34 AM 21.2 °F 14.9 °F 19.4 °F 93% 30.33 in 10.0 mi SE 4.6 mph - N/A   Clear
2:54 AM 21.2 °F 14.9 °F 19.4 °F 93% 30.32 in 10.0 mi ESE 4.6 mph - N/A   Clear
3:13 AM 23.0 °F 18.4 °F 21.2 °F 93% 30.32 in 10.0 mi ESE 3.5 mph - N/A   Clear
3:33 AM 23.0 °F 17.0 °F 21.2 °F 93% 30.32 in 10.0 mi SE 4.6 mph - N/A   Clear
3:53 AM 24.8 °F 19.1 °F 21.2 °F 86% 30.32 in 10.0 mi SE 4.6 mph - N/A   Clear
4:13 AM 23.0 °F 15.8 °F 21.2 °F 93% 30.31 in 10.0 mi SE 5.8 mph - N/A   Clear
4:34 AM 24.8 °F 17.9 °F 21.2 °F 86% 30.31 in 10.0 mi SSE 5.8 mph - N/A   Clear
4:53 AM 24.8 °F 16.1 °F 19.4 °F 80% 30.30 in 10.0 mi SSE 8.1 mph - N/A   Clear
5:13 AM 24.8 °F 16.1 °F 19.4 °F 80% 30.31 in 10.0 mi SSE 8.1 mph - N/A   Clear
5:34 AM 24.8 °F 16.1 °F 19.4 °F 80% 30.30 in 10.0 mi SE 8.1 mph - N/A   Clear
5:53 AM 26.6 °F 18.2 °F 19.4 °F 74% 30.30 in 10.0 mi SSE 8.1 mph - N/A   Clear
6:14 AM 26.6 °F 18.2 °F 19.4 °F 74% 30.29 in 10.0 mi SSE 8.1 mph - N/A   Clear
6:34 AM 26.6 °F 18.2 °F 19.4 °F 74% 30.29 in 10.0 mi SSE 8.1 mph - N/A   Clear
6:53 AM 26.6 °F 18.2 °F 19.4 °F 74% 30.28 in 10.0 mi SE 8.1 mph - N/A   Clear
7:13 AM 26.6 °F 17.5 °F 19.4 °F 74% 30.28 in 10.0 mi SSE 9.2 mph - N/A   Clear
7:33 AM 26.6 °F 17.5 °F 21.2 °F 80% 30.29 in 10.0 mi SSE 9.2 mph - N/A   Clear
7:53 AM 26.6 °F 17.5 °F 21.2 °F 80% 30.29 in 10.0 mi SE 9.2 mph 16.1 mph N/A   Clear
8:13 AM 28.4 °F 18.0 °F 21.2 °F 74% 30.28 in 10.0 mi SSE 12.7 mph - N/A   Clear
8:33 AM 30.2 °F 20.2 °F 21.2 °F 69% 30.27 in 10.0 mi SE 12.7 mph - N/A   Clear
8:54 AM 30.2 °F 19.8 °F 23.0 °F 75% 30.27 in 10.0 mi SSE 13.8 mph 17.3 mph N/A   Clear
9:13 AM 32.0 °F 22.1 °F 23.0 °F 69% 30.25 in 10.0 mi SE 13.8 mph - N/A   Clear
9:33 AM 33.8 °F 23.9 °F 24.8 °F 70% 30.24 in 10.0 mi SSE 15.0 mph - N/A   Clear
9:53 AM 35.6 °F 27.1 °F 24.8 °F 65% 30.23 in 10.0 mi SSE 12.7 mph 19.6 mph N/A   Clear
10:13 AM 35.6 °F 26.6 °F 24.8 °F 65% 30.23 in 10.0 mi SSE 13.8 mph - N/A   Clear
10:33 AM 35.6 °F 25.9 °F 26.6 °F 70% 30.22 in 10.0 mi SSE 16.1 mph 20.7 mph N/A   Clear
10:54 AM 37.4 °F 28.5 °F 26.6 °F 65% 30.21 in 10.0 mi SSE 15.0 mph 18.4 mph N/A   Clear
11:13 AM 37.4 °F 28.2 °F 26.6 °F 65% 30.21 in 10.0 mi SSE 16.1 mph 21.9 mph N/A   Clear
11:33 AM 39.2 °F 31.6 °F 28.4 °F 65% 30.20 in 10.0 mi SSE 12.7 mph 20.7 mph N/A   Clear
11:54 AM 39.2 °F 30.8 °F 28.4 °F 65% 30.19 in 10.0 mi SSE 15.0 mph - N/A   Clear
12:13 PM 42.8 °F 35.1 °F 28.4 °F 57% 30.18 in 10.0 mi SSE 16.1 mph 23.0 mph N/A   Clear
12:33 PM 42.8 °F 34.8 °F 28.4 °F 57% 30.17 in 10.0 mi SSE 17.3 mph 24.2 mph N/A   Clear
12:53 PM 44.6 °F 36.9 °F 30.2 °F 57% 30.16 in 10.0 mi SSE 18.4 mph 24.2 mph N/A   Clear
1:14 PM 44.6 °F 37.4 °F 30.2 °F 57% 30.14 in 10.0 mi SSE 16.1 mph 24.2 mph N/A   Clear
1:33 PM 44.6 °F 36.9 °F 30.2 °F 57% 30.13 in 10.0 mi SSE 18.4 mph 24.2 mph N/A   Clear
1:53 PM 46.4 °F 39.0 °F 32.0 °F 57% 30.12 in 10.0 mi SSE 19.6 mph 25.3 mph N/A   Clear
2:13 PM 48.2 °F - 33.8 °F 58% 30.10 in 10.0 mi SSE 18.4 mph 24.2 mph N/A   Clear
2:33 PM 48.2 °F - 33.8 °F 58% 30.10 in 10.0 mi South 15.0 mph 21.9 mph N/A   Clear
2:53 PM 50.0 °F - 33.8 °F 54% 30.09 in 10.0 mi South 17.3 mph 24.2 mph N/A   Clear
3:13 PM 51.8 °F - 35.6 °F 54% 30.07 in 10.0 mi SSE 16.1 mph 23.0 mph N/A   Clear
3:34 PM 51.8 °F - 35.6 °F 54% 30.06 in 10.0 mi South 12.7 mph 23.0 mph N/A   Clear
3:54 PM 53.6 °F - 35.6 °F 51% 30.06 in 10.0 mi South 12.7 mph 23.0 mph N/A   Clear
4:13 PM 53.6 °F - 35.6 °F 51% 30.05 in 10.0 mi SSE 12.7 mph 18.4 mph N/A   Clear
4:33 PM 55.4 °F - 37.4 °F 51% 30.03 in 10.0 mi SSE 11.5 mph 20.7 mph N/A   Clear
4:53 PM 55.4 °F - 37.4 °F 51% 30.02 in 10.0 mi SSE 12.7 mph - N/A   Clear
5:13 PM 55.4 °F - 37.4 °F 51% 30.01 in 10.0 mi SSE 10.4 mph - N/A   Clear
5:33 PM 55.4 °F - 37.4 °F 51% 30.00 in 10.0 mi SSE 12.7 mph - N/A   Clear
5:53 PM 57.2 °F - 37.4 °F 48% 29.99 in 10.0 mi SSE 12.7 mph - N/A   Clear
6:14 PM 57.2 °F - 39.2 °F 51% 29.97 in 10.0 mi SSE 11.5 mph - N/A   Clear
6:33 PM 57.2 °F - 37.4 °F 48% 29.96 in 10.0 mi SSE 10.4 mph - N/A   Clear
6:54 PM 55.4 °F - 37.4 °F 51% 29.96 in 10.0 mi SSE 12.7 mph - N/A   Clear
7:13 PM 53.6 °F - 37.4 °F 54% 29.95 in 10.0 mi SSE 12.7 mph - N/A   Clear
7:33 PM 51.8 °F - 37.4 °F 58% 29.95 in 10.0 mi SSE 13.8 mph - N/A   Clear
7:54 PM 51.8 °F - 37.4 °F 58% 29.94 in 10.0 mi South 12.7 mph - N/A   Clear
8:13 PM 50.0 °F - 37.4 °F 62% 29.93 in 10.0 mi South 12.7 mph - N/A   Clear
8:34 PM 48.2 °F - 37.4 °F 66% 29.93 in 10.0 mi South 11.5 mph - N/A   Clear
8:54 PM 48.2 °F - 35.6 °F 62% 29.95 in 10.0 mi South 10.4 mph - N/A   Clear
9:13 PM 48.2 °F - 35.6 °F 62% 29.95 in 10.0 mi South 9.2 mph - N/A   Scattered Clouds
9:33 PM 48.2 °F - 35.6 °F 62% 29.94 in 10.0 mi South 11.5 mph - N/A   Scattered Clouds
9:53 PM 48.2 °F - 35.6 °F 62% 29.94 in 10.0 mi South 13.8 mph - N/A   Scattered Clouds
10:13 PM 46.4 °F 40.7 °F 33.8 °F 62% 29.94 in 10.0 mi South 12.7 mph - N/A   Clear
10:33 PM 46.4 °F 40.7 °F 33.8 °F 62% 29.94 in 10.0 mi South 12.7 mph - N/A   Clear
10:53 PM 46.4 °F 41.1 °F 33.8 °F 62% 29.95 in 10.0 mi South 11.5 mph - N/A   Clear
11:13 PM 46.4 °F 41.1 °F 33.8 °F 62% 29.95 in 10.0 mi SSW 11.5 mph - N/A   Clear
11:33 PM 44.6 °F 38.8 °F 33.8 °F 66% 30.01 in 10.0 mi NW 11.5 mph 15.0 mph N/A   Scattered Clouds
11:53 PM 46.4 °F 40.1 °F 32.0 °F 57% 30.00 in 10.0 mi West 15.0 mph 19.6 mph N/A   Scattered Clouds